Time;durP1;ratioP1;P1;durP2;ratioP2;P2;SDS_P1;SDS_P2;PMS_P1;PMS_P2;Temp;Humidity;BMP_temperature;BMP_pressure;BME280_temperature;BME280_humidity;BME280_pressure;Samples;Min_cycle;Max_cycle;Signal;HPM_P1;HPM_P2
2022/02/27 00:00:29;;;;;;;23.38;12.88;;;4.50;99.90;;;;;;5039195;28;20233;-46
2022/02/27 00:02:57;;;;;;;23.90;13.68;;;4.30;99.90;;;;;;5053033;28;20207;-51
2022/02/27 00:05:24;;;;;;;18.08;12.82;;;4.20;99.90;;;;;;5055111;28;20215;-49
2022/02/27 00:07:51;;;;;;;23.50;13.70;;;4.20;99.90;;;;;;5052145;28;20469;-46
2022/02/27 00:10:20;;;;;;;21.92;12.43;;;4.30;99.90;;;;;;5055103;28;20206;-45
2022/02/27 00:12:49;;;;;;;20.15;13.20;;;4.30;99.90;;;;;;5050869;28;20253;-46
2022/02/27 00:15:17;;;;;;;23.63;14.02;;;4.30;99.90;;;;;;5054652;28;20505;-44
2022/02/27 00:17:44;;;;;;;25.02;12.75;;;4.30;99.90;;;;;;5051865;28;20277;-45
2022/02/27 00:20:12;;;;;;;25.23;14.05;;;4.20;99.90;;;;;;5053942;28;20394;-45
2022/02/27 00:22:40;;;;;;;22.38;14.57;;;4.10;99.90;;;;;;5052161;28;20541;-50
2022/02/27 00:25:08;;;;;;;24.73;14.95;;;4.00;99.90;;;;;;5054183;28;20206;-46
2022/02/27 00:27:37;;;;;;;22.98;14.05;;;4.10;99.90;;;;;;5060372;28;20198;-46
2022/02/27 00:30:07;;;;;;;21.65;14.00;;;4.20;99.90;;;;;;5060053;28;20202;-50
2022/02/27 00:32:36;;;;;;;23.55;13.73;;;4.20;99.90;;;;;;5060248;28;20272;-52
2022/02/27 00:35:05;;;;;;;29.88;14.25;;;4.10;99.90;;;;;;5059673;28;20398;-47
2022/02/27 00:37:32;;;;;;;22.98;12.75;;;4.00;99.90;;;;;;5060506;28;20202;-48
2022/02/27 00:40:00;;;;;;;21.27;12.80;;;4.00;99.90;;;;;;5059893;28;20197;-47
2022/02/27 00:42:27;;;;;;;23.90;13.50;;;3.90;99.90;;;;;;5060097;28;20219;-51
2022/02/27 00:44:54;;;;;;;23.73;12.98;;;3.80;99.90;;;;;;5059586;28;20528;-44
2022/02/27 00:47:21;;;;;;;20.70;13.63;;;3.70;99.90;;;;;;5060031;28;20493;-49
2022/02/27 00:49:48;;;;;;;21.10;14.70;;;3.60;99.90;;;;;;5059152;28;20209;-45
2022/02/27 00:52:22;;;;;;;17.58;10.75;;;3.50;99.90;;;;;;5059246;28;20224;-47
2022/02/27 00:54:50;;;;;;;22.73;12.43;;;3.50;99.90;;;;;;5059574;28;20243;-49
2022/02/27 00:57:18;;;;;;;22.48;12.77;;;3.50;99.90;;;;;;5059297;28;20234;-48
2022/02/27 00:59:45;;;;;;;21.58;13.48;;;3.20;99.90;;;;;;5058724;28;20201;-49
2022/02/27 01:02:13;;;;;;;20.92;12.52;;;3.20;99.90;;;;;;5059372;28;20221;-46
2022/02/27 01:04:41;;;;;;;27.38;14.82;;;3.30;99.90;;;;;;5059488;28;20523;-51
2022/02/27 01:07:08;;;;;;;21.52;13.77;;;3.10;99.90;;;;;;5059974;28;20273;-48
2022/02/27 01:09:36;;;;;;;17.65;13.27;;;3.00;99.90;;;;;;5061698;28;20325;-45
2022/02/27 01:12:03;;;;;;;25.33;13.30;;;2.80;99.90;;;;;;5062778;28;20458;-45
2022/02/27 01:14:30;;;;;;;27.20;15.38;;;2.70;99.90;;;;;;5063345;28;20202;-47
2022/02/27 01:17:01;;;;;;;23.65;13.82;;;2.70;99.90;;;;;;5063005;28;20235;-47
2022/02/27 01:19:29;;;;;;;19.90;13.65;;;2.80;99.90;;;;;;5059946;28;20258;-46
2022/02/27 01:21:56;;;;;;;18.85;12.30;;;3.20;99.90;;;;;;5059560;28;20242;-49
2022/02/27 01:24:24;;;;;;;29.20;15.48;;;3.10;99.90;;;;;;5059007;28;20491;-46
2022/02/27 01:26:51;;;;;;;32.70;13.35;;;3.10;99.90;;;;;;5059121;28;20253;-50
2022/02/27 01:29:19;;;;;;;25.77;16.48;;;2.80;99.90;;;;;;5059501;28;20262;-52
2022/02/27 01:31:46;;;;;;;28.15;18.13;;;2.80;99.90;;;;;;5058950;28;20245;-49
2022/02/27 01:34:13;;;;;;;30.00;16.20;;;2.70;99.90;;;;;;5059227;28;20252;-53
2022/02/27 01:36:40;;;;;;;30.80;16.38;;;2.40;99.90;;;;;;5058968;28;20241;-46
2022/02/27 01:39:08;;;;;;;30.85;16.95;;;2.40;99.90;;;;;;5059272;28;20428;-48
2022/02/27 01:41:35;;;;;;;28.48;17.33;;;2.50;99.90;;;;;;5058921;28;20220;-51
2022/02/27 01:44:02;;;;;;;29.92;17.98;;;2.50;99.90;;;;;;5049154;28;20250;-45
2022/02/27 01:46:30;;;;;;;32.00;20.50;;;2.40;99.90;;;;;;5059191;28;20211;-52
2022/02/27 01:48:57;;;;;;;32.40;17.55;;;2.40;99.90;;;;;;5059233;28;20206;-50
2022/02/27 01:51:25;;;;;;;30.05;18.50;;;2.50;99.90;;;;;;5059152;28;20228;-48
2022/02/27 01:53:52;;;;;;;33.83;17.40;;;2.40;99.90;;;;;;5058901;28;20200;-50
2022/02/27 01:56:21;;;;;;;31.23;17.88;;;2.40;99.90;;;;;;5059086;28;20256;-47
2022/02/27 01:58:48;;;;;;;32.85;19.90;;;2.40;99.90;;;;;;5058714;28;20222;-46
2022/02/27 02:01:15;;;;;;;35.00;20.00;;;2.30;99.90;;;;;;5058904;28;20224;-46
2022/02/27 02:03:42;;;;;;;28.27;18.20;;;2.40;99.90;;;;;;5058900;28;20245;-46
2022/02/27 02:06:10;;;;;;;31.05;20.15;;;2.30;99.90;;;;;;5058743;28;20238;-52
2022/02/27 02:08:38;;;;;;;27.33;16.60;;;2.20;99.90;;;;;;5059314;28;20207;-51
2022/02/27 02:11:05;;;;;;;36.38;18.67;;;2.30;99.90;;;;;;5058667;28;20223;-49
2022/02/27 02:13:33;;;;;;;27.45;18.50;;;2.40;99.90;;;;;;5057982;28;20388;-46
2022/02/27 02:16:00;;;;;;;34.63;20.40;;;2.40;99.90;;;;;;5058992;28;20203;-47
2022/02/27 02:18:27;;;;;;;37.22;17.08;;;2.50;99.90;;;;;;5059153;28;20195;-50
2022/02/27 02:20:54;;;;;;;28.58;17.85;;;2.30;99.90;;;;;;5058335;28;20223;-51
2022/02/27 02:23:22;;;;;;;34.45;19.95;;;2.30;99.90;;;;;;5059066;28;20433;-44
2022/02/27 02:25:49;;;;;;;38.50;19.45;;;2.40;99.90;;;;;;5058889;28;20548;-45
2022/02/27 02:28:16;;;;;;;31.67;16.73;;;2.40;99.90;;;;;;5058596;28;20525;-48
2022/02/27 02:30:44;;;;;;;29.27;18.17;;;2.50;99.90;;;;;;5058668;28;20211;-46
2022/02/27 02:33:11;;;;;;;32.42;19.52;;;2.40;99.90;;;;;;5058769;28;20196;-45
2022/02/27 02:35:39;;;;;;;33.88;19.63;;;2.30;99.90;;;;;;5060074;28;20195;-49
2022/02/27 02:38:06;;;;;;;39.70;19.60;;;2.40;99.90;;;;;;5062741;28;20241;-46
2022/02/27 02:40:33;;;;;;;37.60;19.30;;;2.30;99.90;;;;;;5062605;28;20620;-46
2022/02/27 02:43:01;;;;;;;34.65;22.70;;;2.50;99.90;;;;;;5061817;28;20214;-49
2022/02/27 02:45:28;;;;;;;29.00;20.15;;;2.40;99.90;;;;;;5062413;28;20206;-47
2022/02/27 02:47:56;;;;;;;29.77;20.30;;;2.30;99.90;;;;;;5061772;28;20200;-50
2022/02/27 02:50:23;;;;;;;39.83;22.02;;;2.30;99.90;;;;;;5062176;28;20204;-49
2022/02/27 02:52:50;;;;;;;39.10;21.83;;;2.40;99.90;;;;;;5061996;28;20230;-46
2022/02/27 02:55:20;;;;;;;45.65;22.85;;;2.30;99.90;;;;;;5061912;28;20490;-49
2022/02/27 02:57:47;;;;;;;34.95;20.95;;;2.40;99.90;;;;;;5062147;28;20258;-52
2022/02/27 03:00:15;;;;;;;32.75;21.85;;;2.50;99.90;;;;;;5061301;28;20234;-46
2022/02/27 03:02:42;;;;;;;43.22;20.40;;;2.30;99.90;;;;;;5061735;28;20472;-45
2022/02/27 03:05:10;;;;;;;39.70;22.30;;;2.30;99.90;;;;;;5061545;28;20258;-45
2022/02/27 03:07:40;;;;;;;37.38;22.20;;;2.10;99.90;;;;;;5062121;28;20203;-51
2022/02/27 03:10:08;;;;;;;38.03;20.85;;;2.20;99.90;;;;;;5061653;28;20214;-46
2022/02/27 03:12:36;;;;;;;40.72;22.52;;;2.20;99.90;;;;;;5061519;28;20266;-52
2022/02/27 03:15:06;;;;;;;36.83;23.00;;;2.30;99.90;;;;;;5061537;28;20200;-48
2022/02/27 03:17:33;;;;;;;42.50;22.55;;;2.30;99.90;;;;;;5061767;28;20245;-46
2022/02/27 03:20:00;;;;;;;42.13;24.55;;;2.20;99.90;;;;;;5061404;28;20234;-50
2022/02/27 03:22:28;;;;;;;37.95;23.05;;;2.10;99.90;;;;;;5061168;28;20219;-48
2022/02/27 03:24:55;;;;;;;36.92;23.23;;;2.10;99.90;;;;;;5061324;28;20266;-51
2022/02/27 03:27:22;;;;;;;50.08;25.05;;;2.00;99.90;;;;;;5061095;28;20222;-46
2022/02/27 03:29:49;;;;;;;37.97;21.48;;;1.90;99.90;;;;;;5061353;28;20199;-49
2022/02/27 03:32:17;;;;;;;50.55;25.63;;;1.90;99.90;;;;;;5060905;28;20234;-47
2022/02/27 03:34:45;;;;;;;41.63;24.83;;;2.00;99.90;;;;;;5061437;28;20513;-44
2022/02/27 03:37:12;;;;;;;36.55;22.92;;;2.10;99.90;;;;;;5061273;28;20500;-50
2022/02/27 03:39:39;;;;;;;39.83;23.95;;;1.90;99.90;;;;;;5060893;28;20203;-45
2022/02/27 03:42:07;;;;;;;43.53;25.77;;;2.00;99.90;;;;;;5060883;28;20457;-45
2022/02/27 03:44:34;;;;;;;40.22;24.23;;;1.90;99.90;;;;;;5061808;28;20207;-44
2022/02/27 03:47:02;;;;;;;33.17;21.77;;;1.80;99.90;;;;;;5060968;28;20245;-49
2022/02/27 03:49:29;;;;;;;36.55;23.20;;;1.70;99.90;;;;;;5060700;28;20199;-45
2022/02/27 03:51:56;;;;;;;30.90;24.52;;;1.70;99.90;;;;;;5060617;28;20227;-47
2022/02/27 03:54:23;;;;;;;35.67;24.38;;;1.90;99.90;;;;;;5060625;28;20195;-48
2022/02/27 03:56:51;;;;;;;39.97;26.13;;;1.90;99.90;;;;;;5061169;28;20196;-53
2022/02/27 03:59:18;;;;;;;41.90;27.05;;;1.80;99.90;;;;;;5060792;28;20195;-46
2022/02/27 04:01:46;;;;;;;34.28;24.60;;;1.80;99.90;;;;;;5061328;28;20227;-51
2022/02/27 04:04:13;;;;;;;49.13;27.60;;;1.70;99.90;;;;;;5061137;28;20199;-45
2022/02/27 04:06:40;;;;;;;43.22;25.75;;;1.50;99.90;;;;;;5060973;28;20259;-44
2022/02/27 04:09:07;;;;;;;39.22;29.55;;;1.20;99.90;;;;;;5060740;28;20429;-44
2022/02/27 04:11:34;;;;;;;37.03;25.58;;;1.40;99.90;;;;;;5061863;28;20224;-46
2022/02/27 04:14:02;;;;;;;39.72;24.02;;;1.20;99.90;;;;;;5062895;28;20195;-46
2022/02/27 04:16:29;;;;;;;43.20;25.40;;;1.20;99.90;;;;;;5061880;28;20434;-47
2022/02/27 04:18:57;;;;;;;37.58;26.98;;;1.10;99.90;;;;;;5060691;28;20196;-51
2022/02/27 04:21:24;;;;;;;43.20;27.17;;;1.00;99.90;;;;;;5060440;28;20592;-46
2022/02/27 04:23:51;;;;;;;39.35;22.90;;;0.90;99.90;;;;;;5059953;28;20200;-50
2022/02/27 04:26:19;;;;;;;39.00;26.33;;;1.00;99.90;;;;;;5060186;28;20300;-49
2022/02/27 04:28:46;;;;;;;35.10;25.60;;;1.20;99.90;;;;;;5060323;28;20204;-50
2022/02/27 04:31:13;;;;;;;37.13;22.40;;;1.20;99.90;;;;;;5060013;28;20432;-48
2022/02/27 04:33:41;;;;;;;39.05;25.10;;;1.40;99.90;;;;;;5059883;28;20431;-46
2022/02/27 04:36:08;;;;;;;37.70;24.88;;;1.50;99.90;;;;;;5060356;28;20260;-49
2022/02/27 04:38:36;;;;;;;40.97;26.17;;;1.30;99.90;;;;;;5068265;28;20322;-49
2022/02/27 04:41:03;;;;;;;35.97;24.58;;;0.90;99.90;;;;;;5063515;28;20222;-47
2022/02/27 04:43:31;;;;;;;39.85;25.58;;;0.90;99.90;;;;;;5060028;28;20226;-46
2022/02/27 04:45:58;;;;;;;42.63;26.27;;;0.80;99.90;;;;;;5059803;28;20199;-51
2022/02/27 04:48:26;;;;;;;41.42;25.67;;;0.80;99.90;;;;;;5059873;28;20199;-45
2022/02/27 04:50:53;;;;;;;45.58;27.55;;;0.80;99.90;;;;;;5059654;28;20265;-53
2022/02/27 04:53:21;;;;;;;45.28;26.83;;;0.70;99.90;;;;;;5059879;28;20253;-47
2022/02/27 04:55:48;;;;;;;39.33;25.90;;;0.70;99.90;;;;;;5059916;28;20517;-51
2022/02/27 04:58:16;;;;;;;42.70;27.50;;;0.70;99.90;;;;;;5059118;28;20195;-52
2022/02/27 05:00:43;;;;;;;44.03;24.30;;;1.00;99.90;;;;;;5059649;28;20207;-47
2022/02/27 05:03:10;;;;;;;48.58;24.45;;;1.20;99.90;;;;;;5059380;28;20195;-48
2022/02/27 05:05:37;;;;;;;44.65;26.05;;;1.30;99.90;;;;;;5060384;28;20203;-46
2022/02/27 05:08:04;;;;;;;41.28;26.23;;;1.20;99.90;;;;;;5062658;28;20564;-47
2022/02/27 05:10:32;;;;;;;45.45;25.23;;;1.20;99.90;;;;;;5062527;28;20199;-47
2022/02/27 05:13:00;;;;;;;42.08;26.00;;;1.30;99.90;;;;;;5060517;28;20380;-46
2022/02/27 05:15:28;;;;;;;41.58;23.95;;;1.40;99.90;;;;;;5059526;28;20199;-44
2022/02/27 05:17:58;;;;;;;41.58;25.80;;;1.40;99.90;;;;;;5058977;28;20234;-49
2022/02/27 05:20:25;;;;;;;35.63;25.25;;;1.30;99.90;;;;;;5059155;28;20208;-49
2022/02/27 05:22:54;;;;;;;47.60;28.45;;;1.30;99.90;;;;;;5059161;28;20202;-51
2022/02/27 05:25:22;;;;;;;37.90;24.73;;;1.40;99.90;;;;;;5059217;28;20199;-44
2022/02/27 05:27:52;;;;;;;52.75;26.30;;;1.30;99.90;;;;;;5059210;28;20214;-52
2022/02/27 05:30:20;;;;;;;43.47;28.13;;;1.00;99.90;;;;;;5058982;28;20199;-46
2022/02/27 05:32:48;;;;;;;44.47;28.08;;;0.70;99.90;;;;;;5058987;28;20414;-48
2022/02/27 05:35:18;;;;;;;53.13;27.23;;;0.70;99.90;;;;;;5059164;28;20254;-51
2022/02/27 05:37:46;;;;;;;41.13;25.15;;;0.70;99.90;;;;;;5059596;28;20226;-48
2022/02/27 05:40:13;;;;;;;45.67;26.10;;;0.70;99.90;;;;;;5059183;28;20196;-46
2022/02/27 05:42:41;;;;;;;40.40;25.40;;;0.70;99.90;;;;;;5041765;28;20242;-47
2022/02/27 05:45:11;;;;;;;36.08;25.20;;;0.60;99.90;;;;;;5058791;28;20221;-53
2022/02/27 05:47:39;;;;;;;41.38;25.00;;;0.60;99.90;;;;;;5059076;28;20203;-48
2022/02/27 05:50:06;;;;;;;40.55;25.83;;;0.60;99.90;;;;;;5059112;28;20525;-44
2022/02/27 05:52:34;;;;;;;42.15;26.92;;;0.60;99.90;;;;;;5058842;28;20536;-49
2022/02/27 05:55:01;;;;;;;42.78;26.85;;;0.60;99.90;;;;;;5058840;28;20339;-54
2022/02/27 05:57:28;;;;;;;43.55;27.95;;;0.60;99.90;;;;;;5058730;28;20211;-50
2022/02/27 05:59:56;;;;;;;35.80;27.63;;;0.60;99.90;;;;;;5058865;28;20541;-50
2022/02/27 06:02:23;;;;;;;39.33;27.60;;;0.70;99.90;;;;;;5059041;28;20579;-52
2022/02/27 06:04:54;;;;;;;46.75;30.90;;;0.80;99.90;;;;;;5059416;28;20200;-46
2022/02/27 06:07:21;;;;;;;49.75;30.52;;;0.80;99.90;;;;;;5059490;28;20491;-46
2022/02/27 06:09:48;;;;;;;50.08;29.77;;;0.80;99.90;;;;;;5059281;28;20514;-49
2022/02/27 06:12:16;;;;;;;41.30;29.00;;;1.00;99.90;;;;;;5063108;28;20231;-50
2022/02/27 06:14:44;;;;;;;44.83;30.05;;;1.10;99.90;;;;;;5062795;28;20195;-53
2022/02/27 06:17:11;;;;;;;41.40;26.67;;;1.10;99.90;;;;;;5063346;28;20429;-50
2022/02/27 06:19:38;;;;;;;44.08;29.05;;;1.20;99.90;;;;;;5063275;28;20207;-48
2022/02/27 06:22:06;;;;;;;46.30;31.27;;;1.20;99.90;;;;;;5062707;28;20223;-48
2022/02/27 06:24:33;;;;;;;49.83;30.38;;;1.40;99.90;;;;;;5062685;28;20244;-52
2022/02/27 06:27:00;;;;;;;47.63;31.10;;;1.50;99.90;;;;;;5062249;28;20261;-50
2022/02/27 06:29:28;;;;;;;48.55;29.83;;;1.70;99.90;;;;;;5062533;28;20281;-50
2022/02/27 06:31:56;;;;;;;51.25;26.30;;;2.00;99.90;;;;;;5062213;28;20244;-49
2022/02/27 06:34:23;;;;;;;45.50;28.45;;;2.10;99.90;;;;;;5062511;28;20196;-46
2022/02/27 06:36:51;;;;;;;43.85;28.48;;;2.10;99.90;;;;;;5062420;28;20206;-48
2022/02/27 06:39:18;;;;;;;48.75;28.00;;;1.90;99.90;;;;;;5062540;28;20233;-52
2022/02/27 06:41:45;;;;;;;50.63;30.83;;;1.80;99.90;;;;;;5062495;28;20444;-48
2022/02/27 06:44:12;;;;;;;56.53;28.80;;;1.80;99.90;;;;;;5061975;28;20298;-48
2022/02/27 06:46:40;;;;;;;44.33;27.77;;;2.00;99.90;;;;;;5062533;28;20199;-45
2022/02/27 06:49:07;;;;;;;52.65;30.27;;;2.10;99.90;;;;;;5061945;28;20234;-47
2022/02/27 06:51:34;;;;;;;47.33;27.20;;;2.10;99.90;;;;;;5062119;28;20274;-49
2022/02/27 06:54:01;;;;;;;46.38;28.02;;;1.90;99.90;;;;;;5061510;28;20439;-54
2022/02/27 06:56:29;;;;;;;52.72;28.52;;;1.90;99.90;;;;;;5061934;28;20196;-49
2022/02/27 06:58:57;;;;;;;53.08;32.30;;;1.80;99.90;;;;;;5061490;28;20218;-50
2022/02/27 07:01:24;;;;;;;53.50;31.27;;;1.80;99.90;;;;;;5062272;28;20718;-46
2022/02/27 07:03:52;;;;;;;46.88;30.75;;;1.90;99.90;;;;;;5061864;28;20278;-52
2022/02/27 07:06:19;;;;;;;65.22;30.70;;;1.80;99.90;;;;;;5061962;28;20226;-46
2022/02/27 07:08:46;;;;;;;53.60;31.33;;;1.80;99.90;;;;;;5062266;28;20314;-46
2022/02/27 07:11:13;;;;;;;65.97;32.92;;;1.70;99.90;;;;;;5061590;28;20531;-48
2022/02/27 07:13:46;;;;;;;53.45;29.33;;;1.70;99.90;;;;;;5062317;28;20227;-46
2022/02/27 07:16:15;;;;;;;63.40;32.88;;;1.70;99.90;;;;;;5061511;28;20197;-46
2022/02/27 07:18:43;;;;;;;81.63;41.45;;;1.60;99.90;;;;;;5062004;28;20390;-50
2022/02/27 07:21:10;;;;;;;70.95;36.40;;;1.60;99.90;;;;;;5060663;28;20224;-45
2022/02/27 07:23:37;;;;;;;68.68;38.00;;;1.50;99.90;;;;;;5061507;28;20246;-45
2022/02/27 07:26:04;;;;;;;59.92;36.20;;;1.60;99.90;;;;;;5061502;28;20253;-53
2022/02/27 07:28:32;;;;;;;64.32;36.88;;;1.70;99.90;;;;;;5060902;28;20222;-49
2022/02/27 07:30:59;;;;;;;77.03;39.80;;;1.80;99.90;;;;;;5062335;28;20231;-48
2022/02/27 07:33:27;;;;;;;85.45;46.33;;;1.70;99.90;;;;;;5063191;28;20227;-46
2022/02/27 07:35:55;;;;;;;71.88;39.78;;;1.70;99.90;;;;;;5061866;28;20391;-55
2022/02/27 07:38:22;;;;;;;76.50;39.80;;;1.90;99.90;;;;;;5061603;28;20208;-48
2022/02/27 07:40:51;;;;;;;80.13;43.78;;;2.00;99.90;;;;;;5061264;28;20251;-48
2022/02/27 07:43:22;;;;;;;77.00;38.75;;;2.10;99.90;;;;;;5061065;28;20293;-47
2022/02/27 07:45:49;;;;;;;74.97;37.10;;;2.10;99.90;;;;;;5061182;28;20225;-54
2022/02/27 07:48:17;;;;;;;77.90;37.35;;;2.10;99.90;;;;;;5060715;28;20348;-47
2022/02/27 07:50:44;;;;;;;67.80;36.97;;;2.20;99.90;;;;;;5060713;28;20317;-47
2022/02/27 07:53:11;;;;;;;77.38;38.88;;;2.30;99.90;;;;;;5060960;28;20223;-46
2022/02/27 07:55:39;;;;;;;60.55;32.15;;;2.20;99.90;;;;;;5060798;28;20199;-46
2022/02/27 07:58:06;;;;;;;61.22;33.92;;;2.40;99.90;;;;;;5061203;28;20259;-52
2022/02/27 08:00:34;;;;;;;65.85;34.50;;;2.20;99.90;;;;;;5060357;28;20250;-49
2022/02/27 08:03:01;;;;;;;66.60;32.22;;;2.30;99.90;;;;;;5060958;28;20204;-47
2022/02/27 08:05:28;;;;;;;72.68;29.38;;;2.30;99.90;;;;;;5060560;28;20453;-52
2022/02/27 08:07:57;;;;;;;62.72;31.08;;;2.30;99.90;;;;;;5061035;28;20230;-49
2022/02/27 08:10:25;;;;;;;59.83;33.33;;;2.30;99.90;;;;;;5061199;28;20211;-46
2022/02/27 08:12:52;;;;;;;60.17;30.70;;;2.40;99.90;;;;;;5060502;28;20430;-45
2022/02/27 08:15:21;;;;;;;50.92;28.90;;;2.40;99.90;;;;;;5060770;28;20274;-46
2022/02/27 08:18:06;;;;;;;61.00;29.10;;;2.40;99.90;;;;;;5060659;28;20178;-46
2022/02/27 08:20:35;;;;;;;61.30;32.40;;;2.50;99.90;;;;;;5060679;28;20200;-47
2022/02/27 08:23:02;;;;;;;72.90;34.05;;;2.30;99.90;;;;;;5060214;28;20380;-52
2022/02/27 08:25:29;;;;;;;82.90;38.85;;;2.50;99.90;;;;;;5060481;28;20207;-50
2022/02/27 08:27:56;;;;;;;70.32;32.33;;;2.60;99.90;;;;;;5060522;28;20212;-44
2022/02/27 08:30:23;;;;;;;59.55;31.02;;;2.60;99.90;;;;;;5060096;28;20212;-47
2022/02/27 08:32:50;;;;;;;58.88;28.90;;;2.80;99.90;;;;;;5059216;28;20266;-52
2022/02/27 08:35:18;;;;;;;64.85;32.10;;;2.70;99.90;;;;;;5060050;28;20251;-49
2022/02/27 08:37:47;;;;;;;58.58;29.15;;;2.70;99.90;;;;;;5060327;28;20448;-48
2022/02/27 08:40:14;;;;;;;61.15;33.45;;;2.60;99.90;;;;;;5060809;28;20205;-45
2022/02/27 08:42:42;;;;;;;58.55;32.05;;;2.80;99.90;;;;;;5060312;28;20227;-49
2022/02/27 08:45:10;;;;;;;57.58;28.30;;;2.90;99.90;;;;;;5052215;28;20209;-45
2022/02/27 08:47:38;;;;;;;62.67;28.45;;;3.00;99.90;;;;;;5060894;28;20437;-46
2022/02/27 08:50:05;;;;;;;53.10;25.48;;;3.10;99.90;;;;;;5042784;28;20431;-46
2022/02/27 08:52:37;;;;;;;49.95;26.63;;;3.10;99.90;;;;;;5060706;28;20231;-48
2022/02/27 08:55:06;;;;;;;46.38;26.05;;;3.10;99.90;;;;;;5060157;28;20363;-49
2022/02/27 08:57:33;;;;;;;65.45;31.40;;;3.10;99.90;;;;;;5060332;28;20227;-45
2022/02/27 09:00:04;;;;;;;49.60;25.80;;;3.10;99.90;;;;;;5060057;28;20197;-48
2022/02/27 09:02:31;;;;;;;64.50;26.92;;;3.20;99.90;;;;;;5060537;28;20227;-46
2022/02/27 09:05:01;;;;;;;55.40;26.25;;;3.20;99.90;;;;;;5062990;28;20273;-46
2022/02/27 09:07:28;;;;;;;46.45;24.80;;;3.20;99.90;;;;;;5064750;28;20235;-47
2022/02/27 09:09:56;;;;;;;43.60;23.70;;;3.30;99.90;;;;;;5063728;28;20223;-47
2022/02/27 09:12:24;;;;;;;51.70;27.17;;;3.40;99.90;;;;;;5057995;28;20226;-53
2022/02/27 09:14:52;;;;;;;52.65;25.25;;;3.30;99.90;;;;;;5059053;28;20205;-53
2022/02/27 09:17:20;;;;;;;51.40;26.25;;;3.50;99.90;;;;;;5059840;28;20198;-50
2022/02/27 09:19:49;;;;;;;48.80;26.05;;;3.50;99.90;;;;;;5060087;28;20668;-50
2022/02/27 09:22:17;;;;;;;45.83;23.00;;;3.60;99.90;;;;;;5079559;28;20217;-46
2022/02/27 09:24:44;;;;;;;53.55;25.17;;;3.50;99.90;;;;;;5059690;28;20525;-48
2022/02/27 09:27:12;;;;;;;51.83;26.25;;;3.50;99.90;;;;;;5051591;28;20242;-45
2022/02/27 09:29:39;;;;;;;51.08;24.05;;;3.60;99.90;;;;;;5057104;28;20209;-50
2022/02/27 09:32:06;;;;;;;46.03;26.35;;;3.50;99.90;;;;;;5058581;28;20588;-45
2022/02/27 09:34:34;;;;;;;43.22;23.98;;;3.50;99.90;;;;;;5059026;28;20429;-45
2022/02/27 09:37:01;;;;;;;49.10;22.70;;;3.70;99.90;;;;;;5059036;28;20205;-50
2022/02/27 09:39:30;;;;;;;46.78;23.30;;;3.90;99.90;;;;;;5059387;28;20200;-51
2022/02/27 09:41:58;;;;;;;43.05;25.75;;;4.10;99.90;;;;;;5057873;28;20276;-51
2022/02/27 09:44:28;;;;;;;56.67;27.10;;;4.20;99.90;;;;;;5058616;28;20236;-51
2022/02/27 09:47:01;;;;;;;54.15;24.98;;;4.20;99.90;;;;;;5058062;28;20205;-51
2022/02/27 09:49:29;;;;;;;46.97;23.77;;;4.50;99.90;;;;;;5058524;28;20202;-46
2022/02/27 09:51:58;;;;;;;45.72;25.05;;;4.50;99.90;;;;;;5058551;28;20571;-54
2022/02/27 09:54:27;;;;;;;55.45;29.05;;;4.50;99.90;;;;;;5058507;28;20227;-47
2022/02/27 09:56:56;;;;;;;51.53;24.42;;;4.40;99.90;;;;;;5040808;28;20424;-49
2022/02/27 09:59:23;;;;;;;47.70;22.73;;;4.50;99.90;;;;;;5040197;28;20242;-49
2022/02/27 10:02:03;;;;;;;41.40;22.02;;;4.40;99.90;;;;;;5041410;28;20246;-54
2022/02/27 10:04:39;;;;;;;49.20;24.02;;;4.40;99.90;;;;;;5052895;28;20412;-48
2022/02/27 10:07:14;;;;;;;48.75;25.52;;;4.60;99.90;;;;;;5056037;28;20514;-51
2022/02/27 10:09:43;;;;;;;47.63;24.23;;;4.80;99.90;;;;;;5042331;28;20208;-49
2022/02/27 10:12:20;;;;;;;38.55;21.55;;;4.90;99.90;;;;;;5042455;28;20393;-46
2022/02/27 10:15:08;;;;;;;40.67;24.33;;;4.90;99.90;;;;;;5047535;28;20409;-47
2022/02/27 10:17:40;;;;;;;45.40;24.92;;;4.60;99.90;;;;;;5042267;28;20203;-49
2022/02/27 10:20:08;;;;;;;42.97;20.48;;;4.70;99.90;;;;;;5043348;28;20203;-51
2022/02/27 10:22:41;;;;;;;40.60;21.00;;;4.80;99.90;;;;;;5038541;28;20220;-54
2022/02/27 10:25:16;;;;;;;36.17;20.08;;;4.80;99.90;;;;;;5040478;28;20227;-49
2022/02/27 10:27:50;;;;;;;65.40;24.95;;;5.10;99.90;;;;;;5040363;28;20200;-48
2022/02/27 10:30:27;;;;;;;38.88;22.98;;;5.40;99.90;;;;;;5040448;28;20212;-50
2022/02/27 10:33:02;;;;;;;35.60;21.73;;;5.20;99.90;;;;;;5041254;28;20587;-45
2022/02/27 10:35:36;;;;;;;49.88;23.73;;;5.50;99.90;;;;;;5053398;28;20483;-51
2022/02/27 10:38:07;;;;;;;39.60;20.52;;;5.60;99.90;;;;;;5058465;28;20248;-52
2022/02/27 10:40:46;;;;;;;39.15;25.15;;;5.60;99.90;;;;;;5058846;28;20199;-46
2022/02/27 10:43:14;;;;;;;33.42;23.23;;;5.60;99.90;;;;;;5058427;28;20606;-50
2022/02/27 10:45:43;;;;;;;31.63;18.90;;;5.30;99.90;;;;;;5058463;28;20203;-49
2022/02/27 10:48:16;;;;;;;31.60;19.20;;;5.30;99.90;;;;;;5055251;28;20448;-50
2022/02/27 10:50:44;;;;;;;34.63;19.67;;;5.20;99.90;;;;;;5046392;28;20761;-47
2022/02/27 10:53:15;;;;;;;36.03;22.38;;;5.30;99.90;;;;;;5045628;28;20234;-46
2022/02/27 10:55:42;;;;;;;36.95;22.27;;;5.60;99.90;;;;;;5045144;28;20196;-51
2022/02/27 10:58:10;;;;;;;34.88;21.58;;;5.50;99.90;;;;;;5048029;28;20199;-48
2022/02/27 11:00:38;;;;;;;34.55;20.25;;;5.40;99.90;;;;;;5047014;28;20211;-44
2022/02/27 11:03:09;;;;;;;45.00;21.52;;;5.30;99.90;;;;;;5047036;28;20401;-45
2022/02/27 11:05:38;;;;;;;36.20;21.75;;;5.50;99.90;;;;;;5049268;28;20211;-49
2022/02/27 11:08:08;;;;;;;40.40;23.80;;;5.40;99.90;;;;;;5056502;28;20517;-49
2022/02/27 11:10:40;;;;;;;45.40;24.55;;;5.10;99.90;;;;;;5047947;28;20203;-51
2022/02/27 11:13:12;;;;;;;34.33;19.95;;;4.90;99.90;;;;;;5053156;28;20226;-49
2022/02/27 11:15:40;;;;;;;36.47;19.92;;;4.90;99.90;;;;;;5044702;28;20263;-52
2022/02/27 11:18:08;;;;;;;40.08;19.90;;;4.80;99.90;;;;;;5045128;28;20202;-49
2022/02/27 11:20:36;;;;;;;31.38;20.60;;;4.80;99.90;;;;;;5047091;28;20271;-51
2022/02/27 11:23:04;;;;;;;41.50;24.05;;;4.90;99.90;;;;;;5041956;28;20251;-52
2022/02/27 11:25:31;;;;;;;36.47;20.98;;;5.00;99.90;;;;;;5056591;28;20257;-49
2022/02/27 11:28:08;;;;;;;32.55;18.98;;;5.10;99.90;;;;;;5057594;28;20406;-46
2022/02/27 11:30:40;;;;;;;38.53;20.42;;;5.10;99.90;;;;;;5055989;28;20207;-44
2022/02/27 11:33:18;;;;;;;34.08;21.85;;;4.90;99.90;;;;;;5056646;28;20198;-51
2022/02/27 11:35:55;;;;;;;33.28;19.83;;;5.10;99.90;;;;;;5060558;28;20191;-51
2022/02/27 11:38:30;;;;;;;34.65;19.20;;;5.30;99.90;;;;;;5044147;28;20195;-48
2022/02/27 11:41:17;;;;;;;28.88;17.42;;;5.60;99.90;;;;;;5060825;28;20215;-49
2022/02/27 11:43:53;;;;;;;37.45;17.73;;;5.70;99.90;;;;;;5057899;28;20207;-46
2022/02/27 11:46:35;;;;;;;32.95;20.27;;;6.10;99.90;;;;;;5060260;28;20237;-53
2022/02/27 11:49:30;;;;;;;31.10;18.70;;;6.20;99.90;;;;;;5059808;28;20212;-49
2022/02/27 11:52:07;;;;;;;37.05;18.52;;;6.50;99.90;;;;;;5056836;28;20219;-49
2022/02/27 11:54:54;;;;;;;33.38;19.88;;;6.80;99.90;;;;;;5052735;28;20281;-49
2022/02/27 11:57:26;;;;;;;32.60;19.33;;;6.40;99.90;;;;;;5058736;28;20374;-49
2022/02/27 11:59:59;;;;;;;39.33;22.15;;;6.60;99.90;;;;;;5057094;28;20530;-46
2022/02/27 12:02:43;;;;;;;38.47;21.67;;;6.80;99.90;;;;;;5042627;28;20219;-49
2022/02/27 12:05:40;;;;;;;31.02;18.77;;;6.70;99.90;;;;;;5044973;28;20199;-45
2022/02/27 12:08:16;;;;;;;39.03;21.60;;;6.60;99.90;;;;;;5049722;28;20265;-51
2022/02/27 12:10:47;;;;;;;32.92;20.38;;;6.30;99.90;;;;;;5051440;28;20215;-48
2022/02/27 12:13:25;;;;;;;31.13;20.10;;;6.00;99.90;;;;;;5061520;28;20257;-46
2022/02/27 12:16:06;;;;;;;26.75;16.88;;;5.90;99.90;;;;;;5060608;28;20206;-52
2022/02/27 12:18:47;;;;;;;28.83;17.55;;;5.90;99.90;;;;;;5061664;28;20196;-45
2022/02/27 12:21:19;;;;;;;32.63;20.05;;;5.50;99.90;;;;;;5043756;28;20241;-46
2022/02/27 12:23:48;;;;;;;41.25;19.50;;;5.30;99.90;;;;;;5060670;28;20422;-46
2022/02/27 12:26:36;;;;;;;37.65;20.23;;;5.30;99.90;;;;;;5060586;28;20199;-47
2022/02/27 12:29:04;;;;;;;33.80;21.02;;;5.30;99.90;;;;;;5060341;28;20203;-48
2022/02/27 12:31:33;;;;;;;28.83;19.65;;;5.30;99.90;;;;;;5060703;28;20245;-50
2022/02/27 12:34:14;;;;;;;38.88;19.98;;;5.50;99.90;;;;;;5059745;28;20253;-50
2022/02/27 12:36:41;;;;;;;40.65;19.85;;;5.70;99.90;;;;;;5059772;28;20229;-49
2022/02/27 12:39:11;;;;;;;32.65;18.23;;;5.70;99.90;;;;;;5045811;28;20203;-46
2022/02/27 12:41:47;;;;;;;36.88;19.67;;;5.80;99.90;;;;;;5048319;28;20258;-46
2022/02/27 12:44:25;;;;;;;36.97;17.77;;;5.60;99.90;;;;;;5059439;28;20215;-47